Time;durP1;ratioP1;P1;durP2;ratioP2;P2;SDS_P1;SDS_P2;PMS_P1;PMS_P2;Temp;Humidity;BMP_temperature;BMP_pressure;BME280_temperature;BME280_humidity;BME280_pressure;Samples;Min_cycle;Max_cycle;Signal;HPM_P1;HPM_P2
2021/11/29 00:06:18;;;;;;;10.98;6.13;;;308.10;2304.00;;;;;;5026396;28;20025;-91
2021/11/29 00:08:52;;;;;;;10.50;6.05;;;332.80;2329.60;;;;;;5036285;28;20021;-92
2021/11/29 00:11:32;;;;;;;10.55;7.13;;;332.90;2329.60;;;;;;5036313;28;20022;-93
2021/11/29 00:13:58;;;;;;;7.28;4.53;;;333.10;2329.60;;;;;;5036762;28;20025;-89
2021/11/29 00:16:24;;;;;;;8.65;4.50;;;333.00;2329.60;;;;;;5036097;28;20135;-91
2021/11/29 00:30:13;;;;;;;10.50;6.10;;;333.30;2329.60;;;;;;4899270;29;20119;-89
2021/11/29 00:43:42;;;;;;;8.10;4.28;;;333.40;2329.60;;;;;;4880263;29;20104;-89
2021/11/29 00:46:08;;;;;;;8.23;4.60;;;333.30;2329.60;;;;;;4869191;29;20367;-85
2021/11/29 00:48:34;;;;;;;10.40;5.97;;;333.30;2329.60;;;;;;4920667;29;20032;-86
2021/11/29 00:51:52;;;;;;;10.73;6.22;;;333.20;2329.60;;;;;;4932971;28;20066;-88
2021/11/29 00:55:46;;;;;;;25.38;13.93;;;333.20;2329.60;;;;;;4958326;28;20093;-89
2021/11/29 01:02:25;;;;;;;;;;;;;;;;;;;;;
2021/11/29 01:04:52;;;;;;;10.38;5.65;;;333.20;2329.60;;;;;;4839482;29;20041;-86
2021/11/29 01:07:17;;;;;;;15.55;10.32;;;333.00;2329.60;;;;;;4920472;29;20135;-87
2021/11/29 01:09:43;;;;;;;16.35;9.25;;;333.00;2329.60;;;;;;4974580;28;20100;-86
2021/11/29 01:12:28;;;;;;;;;;;;;;;;;;;;;
2021/11/29 01:14:55;;;;;;;29.13;19.42;;;333.00;2329.60;;;;;;5013796;28;20014;-86
2021/11/29 01:17:21;;;;;;;22.27;12.35;;;333.00;2329.60;;;;;;5017248;28;20113;-83
2021/11/29 01:19:49;;;;;;;15.43;8.07;;;333.00;2329.60;;;;;;5033779;28;20472;-85
2021/11/29 01:22:15;;;;;;;11.18;6.85;;;333.10;2329.60;;;;;;5035743;28;20017;-88
2021/11/29 01:27:52;;;;;;;9.82;5.38;;;333.20;2329.60;;;;;;5033050;28;20033;-88
2021/11/29 01:30:35;;;;;;;6.35;3.67;;;333.20;2329.60;;;;;;5034199;28;20033;-89
2021/11/29 01:33:18;;;;;;;;;;;333.20;2329.60;;;;;;5034992;28;20417;-89
2021/11/29 01:36:09;;;;;;;17.47;6.13;;;333.20;2329.60;;;;;;5034988;28;19901;-89
2021/11/29 01:38:38;;;;;;;9.07;3.15;;;333.20;2329.60;;;;;;5033228;28;20282;-90
2021/11/29 01:41:20;;;;;;;27.20;10.35;;;333.20;2329.60;;;;;;5034340;28;20020;-89
2021/11/29 01:44:54;;;;;;;12.52;4.90;;;333.20;2329.60;;;;;;5034372;28;20080;-89
2021/11/29 01:54:38;;;;;;;8.98;3.33;;;333.10;2329.60;;;;;;4994269;28;20401;-91
2021/11/29 02:00:45;;;;;;;6.60;2.72;;;333.10;2329.60;;;;;;4993065;28;20045;-90
2021/11/29 02:03:43;;;;;;;7.32;4.38;;;333.10;2329.60;;;;;;4973125;28;20037;-89
2021/11/29 02:06:34;;;;;;;13.10;5.95;;;333.00;2329.60;;;;;;4977535;28;20125;-88
2021/11/29 02:09:39;;;;;;;9.65;5.72;;;333.00;2329.60;;;;;;4977202;28;20173;-89
2021/11/29 02:12:26;;;;;;;5.57;4.38;;;333.00;2329.60;;;;;;5007714;28;20744;-90
2021/11/29 02:15:21;;;;;;;5.90;2.70;;;332.90;2329.60;;;;;;5033699;28;20174;-89
2021/11/29 02:17:47;;;;;;;7.00;2.60;;;332.90;2329.60;;;;;;5034135;28;20445;-89
2021/11/29 02:20:23;;;;;;;6.53;3.47;;;332.90;2329.60;;;;;;5033843;28;20052;-89
2021/11/29 02:22:52;;;;;;;7.65;3.78;;;332.80;2329.60;;;;;;5034274;28;20021;-88
2021/11/29 02:25:26;;;;;;;7.25;3.05;;;332.80;2329.60;;;;;;5033410;28;20029;-88
2021/11/29 02:27:56;;;;;;;9.00;2.55;;;332.80;2329.60;;;;;;5033374;28;20461;-88
2021/11/29 02:30:53;;;;;;;6.05;3.05;;;332.80;2329.60;;;;;;5033636;28;20080;-89
2021/11/29 02:33:25;;;;;;;6.93;2.75;;;308.10;2304.00;;;;;;5033111;28;20036;-89
2021/11/29 02:37:04;;;;;;;7.65;2.50;;;308.10;2304.00;;;;;;5033475;28;20517;-89
2021/11/29 02:39:59;;;;;;;;;;;;;;;;;;;;;
2021/11/29 02:50:21;;;;;;;5.43;2.33;;;307.90;2304.00;;;;;;4944320;28;20406;-91
2021/11/29 03:00:41;;;;;;;4.78;1.60;;;308.00;2304.00;;;;;;4973151;28;20084;-92
2021/11/29 03:07:14;;;;;;;4.38;1.40;;;307.90;2304.00;;;;;;4973529;28;20037;-92
2021/11/29 03:14:07;;;;;;;;;;;;;;;;;;;;;
2021/11/29 03:17:16;;;;;;;25.13;12.73;;;308.00;2304.00;;;;;;4913944;29;20039;-89
2021/11/29 03:24:21;;;;;;;14.23;7.78;;;308.00;2304.00;;;;;;4896554;29;20025;-89
2021/11/29 03:31:09;;;;;;;12.80;6.13;;;307.90;2304.00;;;;;;4934063;29;20035;-89
2021/11/29 03:38:10;;;;;;;20.35;10.80;;;307.80;2304.00;;;;;;4958661;28;20093;-89
2021/11/29 03:40:57;;;;;;;28.92;16.38;;;307.80;2304.00;;;;;;4981096;28;20038;-90
2021/11/29 03:44:05;;;;;;;19.42;11.00;;;307.80;2304.00;;;;;;5018019;28;20029;-89
2021/11/29 03:53:56;;;;;;;29.55;14.13;;;307.80;2304.00;;;;;;5039140;28;20518;-89
2021/11/29 03:56:29;;;;;;;29.23;15.57;;;307.80;2304.00;;;;;;5052991;28;20032;-88
2021/11/29 03:58:55;;;;;;;20.67;10.85;;;307.80;2304.00;;;;;;5052797;28;20036;-88
2021/11/29 04:01:26;;;;;;;14.32;8.07;;;307.70;2304.00;;;;;;5052973;28;20025;-88
2021/11/29 04:03:54;;;;;;;13.45;6.47;;;307.70;2304.00;;;;;;5056585;28;20346;-88
2021/11/29 04:06:34;;;;;;;15.27;8.65;;;307.80;2304.00;;;;;;5055930;28;20052;-89
2021/11/29 04:09:10;;;;;;;14.13;7.70;;;307.80;2304.00;;;;;;5056403;28;20117;-88
2021/11/29 04:11:38;;;;;;;18.10;7.72;;;307.80;2304.00;;;;;;5056366;28;20475;-87
2021/11/29 04:14:10;;;;;;;18.52;10.25;;;307.80;2304.00;;;;;;5056140;28;20021;-88
2021/11/29 04:16:47;;;;;;;16.10;9.68;;;307.80;2304.00;;;;;;5056322;28;20021;-88
2021/11/29 04:19:13;;;;;;;13.93;7.78;;;307.80;2304.00;;;;;;5056042;28;20029;-88
2021/11/29 04:21:42;;;;;;;12.48;6.32;;;307.80;2304.00;;;;;;5056073;28;20021;-88
2021/11/29 04:24:12;;;;;;;13.25;7.90;;;307.60;2304.00;;;;;;5056298;28;20132;-88
2021/11/29 04:26:51;;;;;;;9.70;7.38;;;307.60;2304.00;;;;;;5056030;28;20115;-89
2021/11/29 04:29:23;;;;;;;10.23;7.10;;;307.40;2304.00;;;;;;5056160;28;20024;-91
2021/11/29 04:31:52;;;;;;;8.63;5.68;;;307.40;2304.00;;;;;;5056403;28;20056;-92
2021/11/29 04:34:18;;;;;;;10.43;6.18;;;307.40;2304.00;;;;;;5055572;28;20056;-89
2021/11/29 04:36:44;;;;;;;8.15;6.32;;;307.70;2304.00;;;;;;5055572;28;20021;-92
2021/11/29 04:39:13;;;;;;;10.70;7.82;;;307.30;2304.00;;;;;;5055776;28;20518;-90
2021/11/29 04:41:38;;;;;;;23.10;13.40;;;282.50;2278.40;;;;;;5055167;28;20031;-90
2021/11/29 04:44:07;;;;;;;23.30;11.95;;;307.20;2304.00;;;;;;5055249;28;20033;-90
2021/11/29 04:46:36;;;;;;;28.88;13.65;;;307.20;2304.00;;;;;;5055646;28;20368;-88
2021/11/29 04:49:02;;;;;;;17.52;11.45;;;282.50;2278.40;;;;;;5055918;28;20456;-91
2021/11/29 04:51:41;;;;;;;12.57;9.77;;;282.40;2278.40;;;;;;5057153;28;20108;-89
2021/11/29 04:54:14;;;;;;;12.95;10.68;;;282.20;2278.40;;;;;;5058757;28;20052;-90
2021/11/29 04:57:00;;;;;;;12.60;10.18;;;282.10;2278.40;;;;;;5058847;28;20028;-91
2021/11/29 04:59:34;;;;;;;15.82;10.02;;;282.00;2278.40;;;;;;5073107;28;20040;-88
2021/11/29 05:02:09;;;;;;;19.35;12.80;;;282.00;2278.40;;;;;;5075201;28;20027;-89
2021/11/29 05:04:45;;;;;;;17.60;11.10;;;307.30;2304.00;;;;;;5063088;28;20040;-91
2021/11/29 05:07:12;;;;;;;35.92;19.15;;;282.00;2278.40;;;;;;5059353;28;20024;-90
2021/11/29 05:09:40;;;;;;;21.92;14.13;;;281.90;2278.40;;;;;;5058466;28;20054;-90
2021/11/29 05:12:16;;;;;;;17.50;11.02;;;282.00;2278.40;;;;;;5058598;28;20062;-91
2021/11/29 05:14:58;;;;;;;39.67;20.52;;;281.90;2278.40;;;;;;5058542;28;20074;-93
2021/11/29 05:17:27;;;;;;;34.63;18.20;;;281.90;2278.40;;;;;;5058271;28;20066;-92
2021/11/29 05:19:56;;;;;;;63.60;29.58;;;282.00;2278.40;;;;;;5057528;28;20028;-93
2021/11/29 05:23:05;;;;;;;56.30;37.45;;;281.90;2278.40;;;;;;5058085;28;20115;-91
2021/11/29 05:25:55;;;;;;;39.17;29.15;;;281.80;2278.40;;;;;;5057708;28;20429;-90
2021/11/29 05:28:39;;;;;;;35.25;27.75;;;281.80;2278.40;;;;;;5057758;28;20068;-91
2021/11/29 05:31:33;;;;;;;33.20;23.48;;;281.70;2278.40;;;;;;5057919;28;20025;-93
2021/11/29 05:34:04;;;;;;;32.47;22.42;;;256.90;2252.80;;;;;;5057863;28;20424;-91
2021/11/29 05:36:36;;;;;;;35.28;24.80;;;281.60;2278.40;;;;;;5057593;28;20459;-93
2021/11/29 05:39:38;;;;;;;24.05;16.17;;;256.90;2252.80;;;;;;5055888;28;20663;-93
2021/11/29 05:42:14;;;;;;;30.77;18.98;;;256.90;2252.80;;;;;;5058165;28;20024;-93
2021/11/29 05:45:00;;;;;;;31.10;18.35;;;256.90;2252.80;;;;;;5057308;28;20033;-94
2021/11/29 05:47:34;;;;;;;27.17;24.23;;;256.80;2252.80;;;;;;5045533;28;20036;-92
2021/11/29 05:50:19;;;;;;;27.65;22.60;;;256.50;2252.80;;;;;;5058413;28;20418;-93
2021/11/29 05:52:57;;;;;;;17.83;13.48;;;256.60;2252.80;;;;;;5057379;28;20055;-93
2021/11/29 05:55:45;;;;;;;30.42;19.92;;;256.60;2252.80;;;;;;5057855;28;20024;-92
2021/11/29 05:58:14;;;;;;;36.67;19.85;;;256.70;2252.80;;;;;;5057573;28;20112;-92
2021/11/29 06:00:40;;;;;;;31.48;19.60;;;256.90;2252.80;;;;;;5057439;28;20456;-92
2021/11/29 06:03:06;;;;;;;24.75;17.17;;;256.80;2252.80;;;;;;5057560;28;20133;-91
2021/11/29 06:05:32;;;;;;;30.10;23.58;;;256.80;2252.80;;;;;;5057491;28;20067;-92
2021/11/29 06:08:03;;;;;;;28.00;22.63;;;256.80;2252.80;;;;;;5057477;28;20054;-92
2021/11/29 06:10:31;;;;;;;48.38;33.63;;;256.90;2252.80;;;;;;5057473;28;20039;-92
2021/11/29 06:13:03;;;;;;;42.05;31.38;;;256.80;2252.80;;;;;;5056653;28;20034;-93
2021/11/29 06:15:36;;;;;;;33.58;25.13;;;256.80;2252.80;;;;;;5057332;28;20051;-92
2021/11/29 06:18:08;;;;;;;;;;;256.70;2252.80;;;;;;5057757;28;20023;-92
2021/11/29 06:20:43;;;;;;;55.78;34.08;;;256.20;2252.80;;;;;;5057680;28;19908;-92
2021/11/29 06:23:25;;;;;;;70.88;45.17;;;256.70;2252.80;;;;;;5054893;28;20032;-92
2021/11/29 06:25:56;;;;;;;94.25;50.05;;;256.80;2252.80;;;;;;5056620;28;20016;-92
2021/11/29 06:28:39;;;;;;;70.97;42.72;;;256.90;2252.80;;;;;;5056621;28;20028;-91
2021/11/29 06:31:13;;;;;;;70.55;47.30;;;256.60;2252.80;;;;;;5051560;28;20031;-91
2021/11/29 06:33:52;;;;;;;79.38;54.78;;;256.60;2252.80;;;;;;5056924;28;20466;-92
2021/11/29 06:36:31;;;;;;;75.10;58.85;;;256.80;2252.80;;;;;;5056629;28;20028;-92
2021/11/29 06:39:30;;;;;;;54.90;38.78;;;256.40;2252.80;;;;;;5054726;28;20025;-93
2021/11/29 06:45:25;;;;;;;29.50;23.23;;;256.00;2252.80;;;;;;5072221;28;20028;-93
2021/11/29 06:47:58;;;;;;;27.63;22.05;;;256.20;2252.80;;;;;;5056807;28;20023;-93
2021/11/29 06:50:24;;;;;;;25.80;20.50;;;256.00;2252.80;;;;;;5056265;28;20029;-92
2021/11/29 06:52:59;;;;;;;27.98;20.77;;;256.30;2252.80;;;;;;5053165;28;20049;-92
2021/11/29 06:55:29;;;;;;;22.77;17.70;;;256.40;2252.80;;;;;;5053937;28;20104;-93
2021/11/29 06:58:00;;;;;;;19.35;14.80;;;256.50;2252.80;;;;;;5053378;28;20021;-93
2021/11/29 07:00:36;;;;;;;36.58;27.75;;;256.50;2252.80;;;;;;5053532;28;20028;-93
2021/11/29 07:06:06;;;;;;;25.65;18.48;;;256.30;2252.80;;;;;;5054016;28;20025;-92
2021/11/29 07:08:53;;;;;;;27.50;22.90;;;256.20;2252.80;;;;;;5053241;28;20116;-94
2021/11/29 07:11:22;;;;;;;19.35;15.45;;;231.30;2252.80;;;;;;5053326;28;20426;-93
2021/11/29 07:13:48;;;;;;;16.38;12.88;;;231.30;2252.80;;;;;;5053543;28;20098;-94
2021/11/29 07:16:14;;;;;;;17.50;14.07;;;231.30;2252.80;;;;;;5052850;28;20017;-93
2021/11/29 07:18:52;;;;;;;24.95;20.77;;;256.10;2252.80;;;;;;5053386;28;20025;-94
2021/11/29 07:21:30;;;;;;;32.28;28.08;;;256.20;2252.80;;;;;;5053603;28;20034;-94
2021/11/29 07:24:04;;;;;;;30.67;27.40;;;256.20;2252.80;;;;;;5053604;28;20032;-93
2021/11/29 07:26:30;;;;;;;40.42;36.05;;;256.30;2252.80;;;;;;5053339;28;20361;-93
2021/11/29 07:28:59;;;;;;;32.95;25.13;;;256.30;2252.80;;;;;;5053288;28;20028;-92
2021/11/29 07:31:42;;;;;;;49.70;41.45;;;256.20;2252.80;;;;;;5052972;28;20360;-90
2021/11/29 07:34:13;;;;;;;39.80;31.08;;;256.20;2252.80;;;;;;5053428;28;20033;-91
2021/11/29 07:36:39;;;;;;;42.20;32.35;;;256.30;2252.80;;;;;;5054324;28;20120;-90
2021/11/29 07:39:07;;;;;;;41.30;34.40;;;256.40;2252.80;;;;;;5057652;28;20052;-90
2021/11/29 07:41:33;;;;;;;59.10;52.60;;;256.30;2252.80;;;;;;5058072;28;20025;-88
2021/11/29 07:44:05;;;;;;;51.60;42.88;;;256.30;2252.80;;;;;;5058608;28;20092;-90
2021/11/29 07:46:32;;;;;;;46.00;37.55;;;256.30;2252.80;;;;;;5058493;28;20089;-91
2021/11/29 07:49:00;;;;;;;39.55;31.63;;;256.40;2252.80;;;;;;5057938;28;20082;-90
2021/11/29 07:51:27;;;;;;;41.20;31.42;;;256.50;2252.80;;;;;;5058763;28;20025;-91
2021/11/29 07:54:15;;;;;;;41.67;29.52;;;256.90;2252.80;;;;;;5059864;28;20021;-91
2021/11/29 07:56:44;;;;;;;74.25;39.30;;;256.40;2252.80;;;;;;5058232;28;20029;-90
2021/11/29 07:59:10;;;;;;;64.40;37.70;;;256.40;2252.80;;;;;;5059631;28;20119;-89
2021/11/29 08:01:58;;;;;;;57.35;34.80;;;256.50;2252.80;;;;;;5059516;28;20060;-90
2021/11/29 08:04:28;;;;;;;38.58;28.80;;;256.50;2252.80;;;;;;5059341;28;20070;-91
2021/11/29 08:06:56;;;;;;;29.02;23.45;;;256.40;2252.80;;;;;;5059453;28;20063;-90
2021/11/29 08:09:22;;;;;;;31.75;25.23;;;256.30;2252.80;;;;;;5059323;28;20452;-89
2021/11/29 08:11:48;;;;;;;30.25;23.92;;;256.30;2252.80;;;;;;5059122;28;20017;-91
2021/11/29 08:14:14;;;;;;;26.60;20.05;;;256.40;2252.80;;;;;;5059372;28;20070;-90
2021/11/29 08:16:40;;;;;;;28.60;21.77;;;256.20;2252.80;;;;;;5059098;28;20027;-91
2021/11/29 08:19:05;;;;;;;29.08;24.15;;;256.30;2252.80;;;;;;5059214;28;20055;-90
2021/11/29 08:21:31;;;;;;;27.17;22.30;;;256.40;2252.80;;;;;;5059179;28;20060;-90
2021/11/29 08:23:57;;;;;;;34.65;25.55;;;256.40;2252.80;;;;;;5059205;28;20063;-89
2021/11/29 08:26:29;;;;;;;34.88;24.13;;;256.40;2252.80;;;;;;5058862;28;20017;-91
2021/11/29 08:28:55;;;;;;;30.13;22.38;;;256.30;2252.80;;;;;;5058716;28;20086;-91
2021/11/29 08:31:21;;;;;;;30.83;24.25;;;256.40;2252.80;;;;;;5059233;28;20024;-90
2021/11/29 08:33:47;;;;;;;28.00;22.92;;;256.30;2252.80;;;;;;5058940;28;20016;-90
2021/11/29 08:36:13;;;;;;;27.52;20.77;;;256.20;2252.80;;;;;;5058989;28;20052;-90
2021/11/29 08:38:39;;;;;;;26.02;20.67;;;256.20;2252.80;;;;;;5058635;28;20051;-89
2021/11/29 08:41:04;;;;;;;27.88;20.35;;;256.30;2252.80;;;;;;5058827;28;20028;-90
2021/11/29 08:43:31;;;;;;;32.33;22.65;;;256.10;2252.80;;;;;;5058852;28;20048;-90
2021/11/29 08:45:57;;;;;;;33.42;24.60;;;256.40;2252.80;;;;;;5058568;28;20032;-90
2021/11/29 08:48:24;;;;;;;29.00;22.58;;;256.40;2252.80;;;;;;5058138;28;20024;-90
2021/11/29 08:50:52;;;;;;;85.72;67.53;;;256.40;2252.80;;;;;;5058332;28;20028;-90
2021/11/29 08:53:23;;;;;;;65.30;49.63;;;256.40;2252.80;;;;;;5057686;28;20055;-90
2021/11/29 08:55:49;;;;;;;53.03;40.22;;;256.50;2252.80;;;;;;5058272;28;20106;-91
2021/11/29 08:58:16;;;;;;;52.63;37.67;;;256.40;2252.80;;;;;;5058577;28;20021;-89
2021/11/29 09:00:43;;;;;;;45.53;31.38;;;256.50;2252.80;;;;;;5058250;28;20021;-90
2021/11/29 09:03:15;;;;;;;46.83;30.83;;;256.50;2252.80;;;;;;5058379;28;20047;-89
2021/11/29 09:05:43;;;;;;;49.97;36.20;;;256.50;2252.80;;;;;;5057675;28;20048;-89
2021/11/29 09:08:17;;;;;;;49.72;36.05;;;256.50;2252.80;;;;;;5058246;28;20016;-89
2021/11/29 09:10:45;;;;;;;43.72;35.30;;;256.50;2252.80;;;;;;5058079;28;20067;-89
2021/11/29 09:13:12;;;;;;;56.97;44.70;;;256.50;2252.80;;;;;;5058089;28;20047;-89
2021/11/29 09:15:38;;;;;;;60.75;48.72;;;256.50;2252.80;;;;;;5058041;28;20027;-89
2021/11/29 09:18:06;;;;;;;58.00;44.38;;;256.60;2252.80;;;;;;5058053;28;20073;-90
2021/11/29 09:20:35;;;;;;;50.63;42.03;;;256.50;2252.80;;;;;;5057853;28;20024;-90
2021/11/29 09:23:03;;;;;;;59.20;47.38;;;231.30;2252.80;;;;;;5058048;28;20471;-90
2021/11/29 09:25:29;;;;;;;59.05;44.20;;;256.70;2252.80;;;;;;5057798;28;20021;-90
2021/11/29 09:27:56;;;;;;;50.35;37.55;;;256.80;2252.80;;;;;;5058118;28;20024;-90
2021/11/29 09:30:22;;;;;;;54.08;38.90;;;256.80;2252.80;;;;;;5058029;28;20028;-91
2021/11/29 09:32:48;;;;;;;53.85;40.50;;;256.80;2252.80;;;;;;5058037;28;20341;-89
2021/11/29 09:35:17;;;;;;;73.97;54.17;;;256.80;2252.80;;;;;;5057625;28;20028;-89
2021/11/29 09:37:44;;;;;;;69.72;53.13;;;256.90;2252.80;;;;;;5057925;28;20016;-90
2021/11/29 09:40:16;;;;;;;50.90;38.42;;;256.90;2252.80;;;;;;5057714;28;20024;-88
2021/11/29 09:42:42;;;;;;;48.45;36.22;;;256.90;2252.80;;;;;;5057653;28;20115;-90
2021/11/29 09:45:10;;;;;;;64.68;51.67;;;256.90;2252.80;;;;;;5057611;28;20410;-89
2021/11/29 09:47:36;;;;;;;59.70;47.00;;;256.90;2252.80;;;;;;5057306;28;20021;-89
2021/11/29 09:50:04;;;;;;;86.70;64.90;;;256.90;2252.80;;;;;;5057614;28;20033;-89
2021/11/29 09:52:30;;;;;;;57.28;44.72;;;281.60;2278.40;;;;;;5057035;28;20040;-89
2021/11/29 09:54:56;;;;;;;47.92;35.47;;;281.60;2278.40;;;;;;5057098;28;20025;-89
2021/11/29 09:57:22;;;;;;;51.03;42.00;;;256.90;2252.80;;;;;;5057465;28;20026;-90
2021/11/29 09:59:48;;;;;;;40.38;30.90;;;281.60;2278.40;;;;;;5076695;28;20017;-88
2021/11/29 10:02:14;;;;;;;39.28;29.75;;;256.90;2252.80;;;;;;5077614;28;20024;-90
2021/11/29 10:04:49;;;;;;;29.05;22.17;;;281.60;2278.40;;;;;;5060570;28;20017;-91
2021/11/29 10:07:52;;;;;;;26.45;20.75;;;281.60;2278.40;;;;;;5061010;28;20016;-90
2021/11/29 10:10:28;;;;;;;34.67;25.45;;;256.90;2252.80;;;;;;5057563;28;20020;-91
2021/11/29 10:13:05;;;;;;;27.80;20.80;;;281.60;2278.40;;;;;;5057557;28;20047;-91
2021/11/29 10:15:42;;;;;;;29.42;23.42;;;256.90;2252.80;;;;;;5057176;28;20348;-88
2021/11/29 10:18:15;;;;;;;40.08;30.30;;;256.90;2252.80;;;;;;5057196;28;20533;-89
2021/11/29 10:21:10;;;;;;;50.88;36.63;;;256.90;2252.80;;;;;;5056987;28;20020;-91
2021/11/29 10:23:46;;;;;;;45.90;35.22;;;256.90;2252.80;;;;;;5057001;28;20060;-90
2021/11/29 10:26:21;;;;;;;44.78;34.65;;;256.90;2252.80;;;;;;5056928;28;20021;-90
2021/11/29 10:28:55;;;;;;;39.38;29.38;;;256.90;2252.80;;;;;;5056917;28;20070;-90
2021/11/29 10:31:57;;;;;;;41.20;29.42;;;281.60;2278.40;;;;;;5056822;28;20468;-89
2021/11/29 10:34:27;;;;;;;43.60;31.00;;;281.60;2278.40;;;;;;4957956;28;20023;-89
2021/11/29 10:37:10;;;;;;;42.90;32.22;;;281.60;2278.40;;;;;;5040016;28;20036;-89
2021/11/29 10:39:39;;;;;;;40.45;31.75;;;281.60;2278.40;;;;;;5056935;28;20020;-90
2021/11/29 10:42:07;;;;;;;36.42;27.13;;;281.60;2278.40;;;;;;5056812;28;20024;-90
2021/11/29 10:44:35;;;;;;;33.70;28.33;;;281.60;2278.40;;;;;;5056430;28;20016;-89
2021/11/29 10:47:05;;;;;;;27.17;21.65;;;281.70;2278.40;;;;;;5056932;28;20074;-91
2021/11/29 10:49:37;;;;;;;27.35;23.45;;;281.60;2278.40;;;;;;5056813;28;20036;-90
2021/11/29 10:52:03;;;;;;;25.77;19.40;;;281.60;2278.40;;;;;;5056275;28;20048;-90
2021/11/29 10:54:31;;;;;;;28.05;22.35;;;281.60;2278.40;;;;;;5056621;28;20032;-89
2021/11/29 10:56:58;;;;;;;56.13;32.97;;;281.70;2278.40;;;;;;5056539;28;20021;-91
2021/11/29 10:59:30;;;;;;;32.08;21.48;;;281.60;2278.40;;;;;;5056467;28;20468;-90
2021/11/29 11:02:02;;;;;;;25.88;20.45;;;281.60;2278.40;;;;;;5056686;28;20359;-90
2021/11/29 11:04:28;;;;;;;;;;;281.70;2278.40;;;;;;5057075;28;20025;-91
2021/11/29 11:07:02;;;;;;;32.22;20.90;;;281.60;2278.40;;;;;;5056365;28;19907;-90
2021/11/29 11:09:30;;;;;;;22.23;15.75;;;281.60;2278.40;;;;;;5056689;28;20025;-89
2021/11/29 11:12:02;;;;;;;24.42;18.10;;;256.90;2252.80;;;;;;5058190;28;20025;-90
2021/11/29 11:14:55;;;;;;;28.23;18.60;;;281.60;2278.40;;;;;;5060535;28;20028;-90
2021/11/29 11:17:23;;;;;;;36.50;21.15;;;256.90;2252.80;;;;;;5060433;28;20035;-90
2021/11/29 11:19:51;;;;;;;34.38;21.58;;;281.60;2278.40;;;;;;5060306;28;20032;-89
2021/11/29 11:22:22;;;;;;;22.77;16.23;;;281.60;2278.40;;;;;;5060289;28;20340;-89
2021/11/29 11:24:54;;;;;;;17.92;13.63;;;256.90;2252.80;;;;;;5060470;28;20102;-90
2021/11/29 11:27:21;;;;;;;25.38;15.75;;;281.60;2278.40;;;;;;5060161;28;20023;-90
2021/11/29 11:29:53;;;;;;;32.13;21.58;;;256.90;2252.80;;;;;;5060324;28;20127;-91
2021/11/29 11:32:27;;;;;;;21.35;14.15;;;256.80;2252.80;;;;;;5077899;28;20024;-89
2021/11/29 11:35:29;;;;;;;19.00;13.63;;;256.80;2252.80;;;;;;5059849;28;20020;-90
2021/11/29 11:38:05;;;;;;;23.00;16.33;;;256.70;2252.80;;;;;;5043482;28;20024;-89
2021/11/29 11:40:33;;;;;;;19.05;13.13;;;256.70;2252.80;;;;;;5060028;28;20166;-89
2021/11/29 11:43:04;;;;;;;19.65;14.48;;;256.70;2252.80;;;;;;5059908;28;20364;-91
2021/11/29 11:46:08;;;;;;;24.17;17.80;;;256.70;2252.80;;;;;;5059291;28;20021;-90
2021/11/29 11:48:43;;;;;;;23.95;18.83;;;256.60;2252.80;;;;;;5059772;28;20027;-92
2021/11/29 11:51:11;;;;;;;36.72;22.83;;;256.70;2252.80;;;;;;5060116;28;20030;-91
2021/11/29 11:53:39;;;;;;;46.97;32.47;;;256.80;2252.80;;;;;;5055459;28;20048;-91
2021/11/29 11:56:06;;;;;;;70.32;44.33;;;256.70;2252.80;;;;;;5056279;28;20021;-91
2021/11/29 11:58:59;;;;;;;35.17;24.65;;;256.70;2252.80;;;;;;5056313;28;20059;-90
2021/11/29 12:01:31;;;;;;;42.42;27.67;;;256.10;2252.80;;;;;;5056258;28;20021;-91
2021/11/29 12:04:20;;;;;;;56.40;37.15;;;256.70;2252.80;;;;;;5056093;28;20044;-92
2021/11/29 12:06:54;;;;;;;42.55;29.02;;;256.70;2252.80;;;;;;5055900;28;20053;-90
2021/11/29 12:12:58;;;;;;;25.73;20.88;;;256.70;2252.80;;;;;;5047657;28;20025;-93
2021/11/29 12:15:45;;;;;;;17.67;12.75;;;256.50;2252.80;;;;;;5056177;28;20461;-92
2021/11/29 12:18:14;;;;;;;13.27;6.43;;;256.10;2252.80;;;;;;5056319;28;20017;-93
2021/11/29 12:21:02;;;;;;;17.15;8.73;;;231.00;2252.80;;;;;;5055618;28;20020;-92
2021/11/29 12:23:44;;;;;;;44.13;21.60;;;230.90;2252.80;;;;;;5054768;28;20017;-90
2021/11/29 12:26:14;;;;;;;152.77;93.40;;;230.90;2252.80;;;;;;5055610;28;20017;-90
2021/11/29 12:28:48;;;;;;;70.50;40.72;;;230.80;2252.80;;;;;;5056057;28;20472;-92
2021/11/29 12:35:29;;;;;;;43.15;26.63;;;230.90;2252.80;;;;;;5057323;28;20023;-92
2021/11/29 12:38:15;;;;;;;49.35;29.00;;;230.90;2252.80;;;;;;5055167;28;20070;-90
2021/11/29 12:41:06;;;;;;;49.38;30.48;;;230.90;2252.80;;;;;;5055563;28;20111;-94
2021/11/29 12:50:01;;;;;;;52.55;39.88;;;231.00;2252.80;;;;;;5044483;28;20452;-91
2021/11/29 12:52:27;;;;;;;48.78;31.80;;;231.00;2252.80;;;;;;5055132;28;20056;-91
2021/11/29 12:55:13;;;;;;;41.97;31.42;;;230.80;2252.80;;;;;;5055512;28;20017;-92
2021/11/29 12:57:40;;;;;;;41.83;28.10;;;230.70;2252.80;;;;;;5053249;28;20048;-89
2021/11/29 13:00:21;;;;;;;48.08;34.00;;;230.70;2252.80;;;;;;5054547;28;20436;-90
2021/11/29 13:02:59;;;;;;;65.00;44.53;;;230.80;2252.80;;;;;;5054869;28;20483;-90
2021/11/29 13:05:25;;;;;;;50.70;38.92;;;230.90;2252.80;;;;;;5054630;28;20070;-90
2021/11/29 13:08:09;;;;;;;54.42;40.72;;;230.90;2252.80;;;;;;5054498;28;20112;-90
2021/11/29 13:10:53;;;;;;;57.33;41.10;;;230.90;2252.80;;;;;;5054384;28;20020;-90
2021/11/29 13:13:41;;;;;;;55.50;41.72;;;230.90;2252.80;;;;;;5054388;28;20112;-91
2021/11/29 13:16:46;;;;;;;;;;;;;;;;;;;;;
2021/11/29 13:19:18;;;;;;;54.55;34.13;;;230.90;2252.80;;;;;;5055660;28;20037;-91
2021/11/29 13:28:38;;;;;;;57.58;40.15;;;231.10;2252.80;;;;;;5055854;28;20115;-93
2021/11/29 13:34:31;;;;;;;72.63;51.97;;;231.10;2252.80;;;;;;5056143;28;20027;-91
2021/11/29 13:36:59;;;;;;;81.43;57.90;;;231.20;2252.80;;;;;;5054070;28;20488;-92
2021/11/29 13:39:31;;;;;;;81.90;59.40;;;231.20;2252.80;;;;;;5053646;28;20457;-83
2021/11/29 13:42:05;;;;;;;103.78;74.25;;;231.30;2252.80;;;;;;5053963;28;20116;-93
2021/11/29 13:44:31;;;;;;;88.13;67.30;;;231.30;2252.80;;;;;;5054858;28;20033;-89
2021/11/29 13:47:00;;;;;;;95.07;70.82;;;231.30;2252.80;;;;;;5053807;28;20029;-92
2021/11/29 13:49:38;;;;;;;89.05;64.53;;;231.20;2252.80;;;;;;5054281;28;20033;-94
2021/11/29 13:52:08;;;;;;;74.18;54.10;;;230.90;2252.80;;;;;;5053911;28;20041;-90
2021/11/29 13:54:36;;;;;;;60.97;43.63;;;230.90;2252.80;;;;;;5053698;28;20108;-90
2021/11/29 13:57:03;;;;;;;57.92;39.85;;;230.80;2252.80;;;;;;5054007;28;20071;-92
2021/11/29 13:59:29;;;;;;;122.68;87.50;;;231.00;2252.80;;;;;;5053874;28;20076;-88
2021/11/29 14:02:15;;;;;;;80.03;58.10;;;230.90;2252.80;;;;;;5054208;28;20027;-92
2021/11/29 14:04:41;;;;;;;64.80;49.83;;;230.90;2252.80;;;;;;5078779;28;20005;-90
2021/11/29 14:07:11;;;;;;;36.55;26.73;;;230.90;2252.80;;;;;;5078189;28;20050;-91
2021/11/29 14:09:40;;;;;;;30.45;24.90;;;230.90;2252.80;;;;;;5078500;28;20017;-91
2021/11/29 14:12:07;;;;;;;41.47;30.42;;;230.70;2252.80;;;;;;5078590;28;20036;-91
2021/11/29 14:14:33;;;;;;;42.55;32.28;;;230.70;2252.80;;;;;;5077927;28;20044;-92
2021/11/29 14:16:59;;;;;;;64.72;45.65;;;230.80;2252.80;;;;;;5078390;28;20033;-92
2021/11/29 14:19:26;;;;;;;31.52;24.45;;;230.70;2252.80;;;;;;5078311;28;20029;-91
2021/11/29 14:21:55;;;;;;;55.00;36.70;;;230.70;2252.80;;;;;;5070274;28;20025;-93
2021/11/29 14:24:34;;;;;;;47.55;34.33;;;230.80;2252.80;;;;;;5061149;28;20021;-92
2021/11/29 14:27:10;;;;;;;31.75;23.63;;;230.80;2252.80;;;;;;5061993;28;20016;-93
2021/11/29 14:29:48;;;;;;;39.55;29.63;;;230.70;2252.80;;;;;;5062166;28;20021;-92
2021/11/29 14:32:22;;;;;;;42.05;31.33;;;230.70;2252.80;;;;;;5060490;28;20024;-95
2021/11/29 14:38:15;;;;;;;54.40;41.03;;;230.90;2252.80;;;;;;5058187;28;20131;-93
2021/11/29 14:41:05;;;;;;;51.28;40.00;;;230.90;2252.80;;;;;;5039095;28;20120;-95
2021/11/29 14:44:20;;;;;;;56.65;43.13;;;231.00;2252.80;;;;;;5018168;28;20033;-95
2021/11/29 14:46:49;;;;;;;53.33;38.83;;;230.90;2252.80;;;;;;5021184;28;20025;-95
2021/11/29 14:49:28;;;;;;;40.65;29.65;;;230.90;2252.80;;;;;;5041543;28;20018;-94